Time;durP1;ratioP1;P1;durP2;ratioP2;P2;SDS_P1;SDS_P2;PMS_P1;PMS_P2;Temp;Humidity;BMP_temperature;BMP_pressure;BME280_temperature;BME280_humidity;BME280_pressure;Samples;Min_cycle;Max_cycle;Signal;HPM_P1;HPM_P2
2023/07/09 00:00:55;;;;;;;3.90;3.60;;;;;;;23.24;64.34;99646.25;4956556;29;20623;-77
2023/07/09 00:03:23;;;;;;;3.80;3.50;;;;;;;23.20;64.48;99650.59;4956110;29;20202;-75
2023/07/09 00:05:51;;;;;;;4.50;4.10;;;;;;;23.16;64.16;99655.69;4963458;28;20299;-76
2023/07/09 00:08:28;;;;;;;3.70;3.50;;;;;;;23.03;64.48;99656.28;4975663;28;20256;-76
2023/07/09 00:10:55;;;;;;;3.57;3.37;;;;;;;23.05;64.51;99650.59;4975749;28;20291;-77
2023/07/09 00:13:22;;;;;;;4.30;3.57;;;;;;;23.04;64.36;99657.09;4974210;28;20246;-77
2023/07/09 00:15:49;;;;;;;3.73;3.47;;;;;;;22.91;64.38;99663.06;4956225;29;20197;-78
2023/07/09 00:18:16;;;;;;;3.70;3.40;;;;;;;22.82;64.74;99662.78;4955214;29;20287;-75
2023/07/09 00:20:43;;;;;;;4.63;4.23;;;;;;;22.84;64.44;99657.94;4956144;29;20636;-76
2023/07/09 00:23:13;;;;;;;4.00;3.57;;;;;;;22.86;64.09;99655.75;4956206;29;20281;-77
2023/07/09 00:25:43;;;;;;;3.20;3.00;;;;;;;22.80;63.98;99661.44;4955517;29;20292;-77
2023/07/09 00:28:15;;;;;;;3.90;3.70;;;;;;;22.85;63.73;99667.66;4956138;29;20192;-77
2023/07/09 00:30:42;;;;;;;3.40;3.20;;;;;;;22.83;63.69;99656.28;4956013;29;20205;-77
2023/07/09 00:33:14;;;;;;;4.17;3.43;;;;;;;22.80;63.49;99656.84;4956114;29;20280;-78
2023/07/09 00:35:41;;;;;;;3.53;3.23;;;;;;;22.82;63.25;99659.28;4955378;29;20196;-77
2023/07/09 00:38:16;;;;;;;4.37;3.30;;;;;;;22.77;63.30;99660.09;4955235;29;20257;-77
2023/07/09 00:40:48;;;;;;;3.37;3.17;;;;;;;22.93;62.52;99650.88;4938653;29;20195;-79
2023/07/09 00:43:17;;;;;;;6.37;3.30;;;;;;;22.88;62.35;99658.19;4955880;29;20277;-79
2023/07/09 00:45:43;;;;;;;3.77;3.37;;;;;;;22.82;62.27;99662.78;4955127;29;20197;-78
2023/07/09 00:48:14;;;;;;;3.33;3.13;;;;;;;22.88;62.07;99652.78;4954992;29;20205;-78
2023/07/09 00:50:47;;;;;;;3.50;3.20;;;;;;;22.93;61.61;99660.88;4955332;29;20188;-78
2023/07/09 00:53:19;;;;;;;3.97;3.50;;;;;;;23.03;61.21;99660.91;4955439;29;20691;-80
2023/07/09 00:55:53;;;;;;;6.40;3.77;;;;;;;22.93;61.23;99667.13;4954838;29;20621;-77
2023/07/09 00:58:21;;;;;;;4.13;3.80;;;;;;;22.94;60.82;99663.31;4955538;29;20272;-78
2023/07/09 01:00:52;;;;;;;3.33;3.13;;;;;;;22.87;61.02;99657.38;4955320;29;20198;-77
2023/07/09 01:03:29;;;;;;;4.63;3.53;;;;;;;22.98;60.79;99659.00;4955533;29;20189;-77
2023/07/09 01:05:58;;;;;;;5.00;3.50;;;;;;;22.90;60.87;99662.25;4963575;28;20191;-77
2023/07/09 01:08:27;;;;;;;3.33;3.13;;;;;;;22.87;61.24;99668.19;4974339;28;20701;-76
2023/07/09 01:10:54;;;;;;;3.90;3.30;;;;;;;22.91;61.00;99655.72;4974555;28;20192;-76
2023/07/09 01:13:20;;;;;;;3.43;3.23;;;;;;;22.77;61.36;99651.97;4974506;28;20251;-76
2023/07/09 01:15:48;;;;;;;3.57;3.27;;;;;;;22.81;61.49;99655.75;4959913;28;20197;-77
2023/07/09 01:18:15;;;;;;;4.30;3.03;;;;;;;22.78;61.28;99652.78;4955098;29;20220;-78
2023/07/09 01:20:43;;;;;;;3.33;3.13;;;;;;;22.60;62.09;99648.72;4954737;29;20204;-80
2023/07/09 01:23:11;;;;;;;3.47;3.17;;;;;;;22.62;62.03;99662.78;4954605;29;20220;-79
2023/07/09 01:25:43;;;;;;;3.00;2.80;;;;;;;22.69;61.52;99659.81;4954916;29;20197;-80
2023/07/09 01:28:10;;;;;;;3.50;3.30;;;;;;;22.65;62.02;99667.66;4955110;29;20202;-80
2023/07/09 01:30:39;;;;;;;6.43;3.17;;;;;;;22.78;61.69;99663.63;4954487;29;20637;-80
2023/07/09 01:33:06;;;;;;;3.50;3.30;;;;;;;22.71;61.26;99663.84;4954594;29;20734;-76
2023/07/09 01:35:36;;;;;;;3.80;3.40;;;;;;;22.68;61.29;99667.13;4954173;29;20549;-77
2023/07/09 01:38:06;;;;;;;4.30;3.13;;;;;;;22.60;61.46;99667.66;4954427;29;20656;-77
2023/07/09 01:40:35;;;;;;;5.17;3.50;;;;;;;22.64;61.37;99663.34;4954884;29;20197;-80
2023/07/09 01:43:06;;;;;;;3.40;3.10;;;;;;;22.75;61.16;99658.72;4954138;29;20192;-79
2023/07/09 01:45:34;;;;;;;3.03;2.90;;;;;;;22.65;60.79;99656.84;4954903;29;20277;-79
2023/07/09 01:48:02;;;;;;;4.17;3.10;;;;;;;22.56;61.27;99660.34;4954414;29;20200;-80
2023/07/09 01:50:29;;;;;;;3.60;3.00;;;;;;;22.48;61.43;99659.00;4953965;28;20251;-80
2023/07/09 01:52:56;;;;;;;3.20;2.90;;;;;;;22.49;61.43;99662.50;4954349;29;20291;-80
2023/07/09 01:55:23;;;;;;;2.87;2.67;;;;;;;22.41;61.63;99669.22;4953680;29;20255;-80
2023/07/09 01:57:52;;;;;;;3.17;2.87;;;;;;;22.44;61.97;99666.00;4954350;29;20224;-80
2023/07/09 02:00:19;;;;;;;3.50;3.20;;;;;;;22.39;61.67;99666.00;4954434;29;20201;-76
2023/07/09 02:02:47;;;;;;;3.00;2.80;;;;;;;22.32;62.23;99665.41;4954412;29;20205;-76
2023/07/09 02:05:15;;;;;;;3.17;2.90;;;;;;;22.30;61.69;99672.19;4957062;28;20201;-78
2023/07/09 02:07:42;;;;;;;3.10;2.90;;;;;;;22.34;61.61;99667.88;4973297;28;20204;-77
2023/07/09 02:10:11;;;;;;;4.10;3.20;;;;;;;22.27;61.74;99673.53;4973550;28;20254;-76
2023/07/09 02:12:37;;;;;;;4.07;3.13;;;;;;;22.27;61.75;99678.13;4973542;28;20195;-78
2023/07/09 02:15:07;;;;;;;3.57;2.73;;;;;;;22.27;61.80;99678.13;4973552;28;20196;-77
2023/07/09 02:17:34;;;;;;;4.57;3.00;;;;;;;22.39;61.97;99671.41;4958961;28;20353;-77
2023/07/09 02:20:00;;;;;;;3.63;2.93;;;;;;;22.41;61.01;99680.06;4953939;29;20200;-78
2023/07/09 02:22:27;;;;;;;3.17;2.97;;;;;;;22.44;61.15;99684.94;4954106;29;20259;-77
2023/07/09 02:24:54;;;;;;;3.43;3.23;;;;;;;22.31;61.45;99682.75;4953924;29;20193;-78
2023/07/09 02:27:21;;;;;;;3.53;3.10;;;;;;;22.28;61.53;99687.88;4954046;29;20259;-77
2023/07/09 02:29:48;;;;;;;3.00;2.80;;;;;;;22.20;61.70;99683.78;4954026;29;20557;-78
2023/07/09 02:32:19;;;;;;;4.50;3.33;;;;;;;22.22;61.60;99692.44;4953676;29;20224;-77
2023/07/09 02:34:48;;;;;;;3.20;2.90;;;;;;;22.23;61.64;99688.69;4953860;29;20232;-77
2023/07/09 02:37:17;;;;;;;4.10;2.63;;;;;;;22.24;61.33;99690.31;4952795;29;20299;-77
2023/07/09 02:39:44;;;;;;;4.43;3.47;;;;;;;22.22;61.21;99699.78;4956432;28;20199;-77
2023/07/09 02:42:11;;;;;;;6.53;3.40;;;;;;;22.14;61.45;99701.13;4963808;28;20201;-76
2023/07/09 02:44:38;;;;;;;3.60;3.30;;;;;;;22.11;61.55;99698.94;4959832;28;20192;-75
2023/07/09 02:47:05;;;;;;;3.23;2.93;;;;;;;22.11;61.97;99696.22;4962690;28;20227;-76
2023/07/09 02:49:33;;;;;;;3.43;2.80;;;;;;;22.09;62.16;99703.78;4964155;28;20211;-75
2023/07/09 02:52:00;;;;;;;4.00;3.03;;;;;;;22.13;62.31;99713.00;4962236;28;20254;-75
2023/07/09 02:54:27;;;;;;;4.00;3.50;;;;;;;21.84;62.90;99679.34;4962786;28;20199;-76
2023/07/09 02:56:54;;;;;;;8.50;3.43;;;;;;;22.03;62.81;99704.84;4963529;28;20250;-76
2023/07/09 02:59:20;;;;;;;4.37;3.07;;;;;;;22.10;62.34;99712.72;4958878;28;20196;-76
2023/07/09 03:01:48;;;;;;;3.20;3.00;;;;;;;22.04;62.74;99711.88;4962316;28;20286;-77
2023/07/09 03:04:15;;;;;;;5.23;3.20;;;;;;;22.04;62.39;99717.28;4963763;28;20668;-76
2023/07/09 03:06:44;;;;;;;3.93;3.10;;;;;;;22.07;63.05;99716.78;4965723;28;20652;-75
2023/07/09 03:09:11;;;;;;;6.63;3.67;;;;;;;22.11;61.84;99726.00;4966884;28;20223;-75
2023/07/09 03:11:38;;;;;;;3.67;3.33;;;;;;;22.07;61.98;99716.78;4967194;28;20192;-77
2023/07/09 03:14:05;;;;;;;3.40;3.20;;;;;;;22.08;61.59;99729.22;4962785;28;20223;-76
2023/07/09 03:16:34;;;;;;;4.17;3.30;;;;;;;22.03;61.75;99726.50;4966702;28;20191;-78
2023/07/09 03:19:03;;;;;;;3.83;3.53;;;;;;;22.13;61.59;99723.81;4966360;28;20282;-78
2023/07/09 03:21:30;;;;;;;3.40;3.10;;;;;;;22.25;61.07;99720.91;4965850;28;20258;-77
2023/07/09 03:23:58;;;;;;;3.20;3.00;;;;;;;22.22;61.21;99724.91;4967451;28;20284;-79
2023/07/09 03:26:25;;;;;;;3.30;3.10;;;;;;;22.23;61.40;99718.47;4962168;28;20201;-78
2023/07/09 03:28:52;;;;;;;3.60;3.33;;;;;;;22.28;60.72;99723.06;4966423;28;20203;-78
2023/07/09 03:31:18;;;;;;;4.30;3.07;;;;;;;22.31;60.39;99728.78;4966939;28;20256;-74
2023/07/09 03:33:47;;;;;;;3.53;3.30;;;;;;;22.23;60.38;99729.28;4962642;28;20251;-74
2023/07/09 03:36:14;;;;;;;4.87;3.07;;;;;;;22.36;60.26;99731.47;4965749;28;20192;-75
2023/07/09 03:38:41;;;;;;;3.40;3.20;;;;;;;22.45;59.93;99727.16;4965982;28;20224;-75
2023/07/09 03:41:09;;;;;;;5.23;3.33;;;;;;;22.58;59.40;99740.22;4964823;28;20200;-75
2023/07/09 03:43:35;;;;;;;3.63;3.37;;;;;;;22.69;58.89;99731.03;4964572;28;20195;-76
2023/07/09 03:46:02;;;;;;;6.10;3.17;;;;;;;22.93;58.50;99732.16;4966847;28;20200;-74
2023/07/09 03:48:29;;;;;;;3.97;3.60;;;;;;;23.12;57.61;99737.84;4964948;28;20292;-75
2023/07/09 03:50:56;;;;;;;5.63;3.13;;;;;;;23.05;57.51;99740.00;4965873;28;20684;-77
2023/07/09 03:53:22;;;;;;;3.20;3.00;;;;;;;22.94;57.63;99738.38;4966676;28;20193;-76
2023/07/09 03:55:53;;;;;;;4.80;3.07;;;;;;;22.92;57.26;99737.84;4962309;28;20193;-77
2023/07/09 03:58:22;;;;;;;3.27;2.97;;;;;;;22.92;57.62;99738.66;4967286;28;20204;-75
2023/07/09 04:00:49;;;;;;;4.17;3.23;;;;;;;23.12;57.08;99746.78;4963054;28;20232;-75
2023/07/09 04:03:15;;;;;;;3.63;3.43;;;;;;;23.15;57.46;99738.09;4965059;28;20256;-76
2023/07/09 04:05:42;;;;;;;6.50;3.00;;;;;;;23.06;56.89;99741.63;4965992;28;20196;-75
2023/07/09 04:08:09;;;;;;;3.30;3.10;;;;;;;23.14;56.96;99739.19;4964432;28;20197;-78
2023/07/09 04:10:36;;;;;;;2.73;2.53;;;;;;;23.48;56.20;99743.00;4975797;28;20636;-76
2023/07/09 04:13:02;;;;;;;6.90;3.27;;;;;;;24.37;54.18;99743.81;4975485;28;20251;-78
2023/07/09 04:15:30;;;;;;;3.43;3.13;;;;;;;25.48;49.02;99753.94;4975281;28;20203;-81
2023/07/09 04:17:57;;;;;;;2.90;2.70;;;;;;;26.22;46.37;99759.69;4975380;28;20297;-80
2023/07/09 04:20:24;;;;;;;2.60;2.50;;;;;;;26.91;46.05;99770.75;4975317;28;20202;-81
2023/07/09 04:22:50;;;;;;;3.20;3.00;;;;;;;27.87;42.87;99770.78;4957119;28;20509;-81
2023/07/09 04:25:17;;;;;;;5.13;3.20;;;;;;;28.42;40.14;99772.44;4955746;29;20207;-81
2023/07/09 04:27:44;;;;;;;5.80;3.17;;;;;;;29.10;39.47;99779.38;4956030;29;20200;-80
2023/07/09 04:30:14;;;;;;;3.50;3.20;;;;;;;29.85;37.66;99776.66;4955942;29;20192;-80
2023/07/09 04:32:44;;;;;;;7.00;2.90;;;;;;;30.39;37.97;99786.38;4955975;29;20212;-79
2023/07/09 04:35:11;;;;;;;13.17;3.10;;;;;;;31.06;35.96;99791.16;4955530;29;20192;-80
2023/07/09 04:37:39;;;;;;;3.83;3.13;;;;;;;31.53;34.43;99787.44;4955331;29;20638;-78
2023/07/09 04:40:10;;;;;;;7.67;3.40;;;;;;;32.32;32.94;99787.69;4955401;29;20748;-77
2023/07/09 04:42:37;;;;;;;4.20;3.17;;;;;;;32.94;31.70;99775.63;4954604;29;20652;-78
2023/07/09 04:45:04;;;;;;;3.10;2.90;;;;;;;33.24;30.94;99787.38;4955601;29;20276;-78
2023/07/09 04:47:31;;;;;;;3.47;2.90;;;;;;;33.37;31.14;99785.47;4955769;29;20199;-78
2023/07/09 04:49:59;;;;;;;4.63;2.90;;;;;;;33.29;31.25;99789.91;4955131;29;20200;-79
2023/07/09 04:52:26;;;;;;;4.63;2.70;;;;;;;33.41;30.44;99784.47;4955190;29;20782;-77
2023/07/09 04:54:52;;;;;;;7.60;2.97;;;;;;;33.45;30.52;99787.34;4955138;29;20696;-77
2023/07/09 04:57:19;;;;;;;2.50;2.30;;;;;;;33.37;30.20;99785.47;4955195;29;20266;-77
2023/07/09 04:59:45;;;;;;;3.40;2.60;;;;;;;33.56;29.88;99789.31;4955268;29;20227;-77
2023/07/09 05:02:12;;;;;;;4.03;3.27;;;;;;;33.66;29.49;99794.44;4954660;29;20200;-81
2023/07/09 05:04:39;;;;;;;3.37;2.37;;;;;;;32.99;30.39;99791.94;4955046;29;20196;-77
2023/07/09 05:07:07;;;;;;;5.33;2.63;;;;;;;33.35;30.11;99787.78;4972495;28;20246;-70
2023/07/09 05:09:34;;;;;;;4.30;2.90;;;;;;;33.58;29.67;99789.81;4974136;28;20318;-68
2023/07/09 05:12:02;;;;;;;7.47;2.77;;;;;;;33.69;29.76;99787.41;4974529;28;20199;-69
2023/07/09 05:14:29;;;;;;;4.63;2.97;;;;;;;34.24;29.10;99794.06;4970115;28;20227;-71
2023/07/09 05:16:56;;;;;;;3.93;3.13;;;;;;;34.71;28.71;99797.97;4962366;28;20250;-69
2023/07/09 05:19:22;;;;;;;4.25;2.22;;;;;;;34.68;28.80;99795.09;4960476;28;20283;-71
2023/07/09 05:21:49;;;;;;;5.00;2.90;;;;;;;35.10;27.57;99804.69;4962979;28;20666;-72
2023/07/09 05:24:17;;;;;;;5.82;2.78;;;;;;;35.21;27.07;99806.63;4967823;28;20195;-71
2023/07/09 05:26:44;;;;;;;18.17;4.13;;;;;;;34.96;27.95;99798.75;4972369;28;20588;-68
2023/07/09 05:29:10;;;;;;;4.35;2.65;;;;;;;34.38;27.87;99791.81;4972640;28;20278;-72
2023/07/09 05:31:37;;;;;;;7.72;2.90;;;;;;;34.47;29.34;99791.69;4968799;28;20254;-75
2023/07/09 05:34:04;;;;;;;6.53;3.22;;;;;;;34.89;29.13;99796.59;4972169;28;20577;-68
2023/07/09 05:36:31;;;;;;;3.40;2.75;;;;;;;34.47;28.94;99798.00;4972111;28;20195;-70
2023/07/09 05:38:58;;;;;;;3.78;2.95;;;;;;;34.93;28.09;99799.44;4971804;28;20234;-71
2023/07/09 05:41:26;;;;;;;2.97;2.78;;;;;;;34.79;27.76;99799.81;4966352;28;20195;-72
2023/07/09 05:43:53;;;;;;;4.35;3.17;;;;;;;34.70;28.91;99790.84;4953248;29;20255;-73
2023/07/09 05:46:22;;;;;;;4.78;3.47;;;;;;;35.07;27.96;99788.81;4953277;29;20200;-72
2023/07/09 05:48:49;;;;;;;6.50;3.45;;;;;;;35.47;27.64;99789.59;4952134;29;20771;-72
2023/07/09 05:51:16;;;;;;;5.07;2.92;;;;;;;35.71;26.79;99792.22;4952857;29;20192;-72
2023/07/09 05:53:43;;;;;;;9.15;2.95;;;;;;;35.30;26.85;99787.13;4959860;28;20188;-74
2023/07/09 05:56:10;;;;;;;5.97;2.50;;;;;;;34.76;28.09;99778.41;4971844;28;20261;-72
2023/07/09 05:58:38;;;;;;;3.72;2.92;;;;;;;34.76;28.42;99783.94;4963777;28;20286;-73
2023/07/09 06:01:05;;;;;;;3.35;2.85;;;;;;;34.92;28.13;99784.84;4954453;28;20191;-76
2023/07/09 06:03:33;;;;;;;5.15;2.50;;;;;;;35.21;27.60;99784.50;4950154;28;20252;-75
2023/07/09 06:06:00;;;;;;;5.13;3.20;;;;;;;35.45;28.16;99778.09;4952790;28;20625;-74
2023/07/09 06:08:27;;;;;;;3.67;2.55;;;;;;;35.75;25.94;99782.09;4953687;28;20254;-78
2023/07/09 06:10:55;;;;;;;2.45;2.35;;;;;;;35.60;26.44;99771.81;4953788;28;20192;-74
2023/07/09 06:13:22;;;;;;;4.47;2.55;;;;;;;35.52;26.44;99768.03;4952840;29;20196;-79
2023/07/09 06:15:52;;;;;;;6.70;2.95;;;;;;;34.99;26.82;99765.69;4953858;28;20196;-79
2023/07/09 06:18:19;;;;;;;6.60;2.83;;;;;;;34.93;26.87;99766.31;4952581;28;20660;-78
2023/07/09 06:20:50;;;;;;;8.18;2.85;;;;;;;34.60;27.62;99765.66;4953703;28;20208;-81
2023/07/09 06:23:17;;;;;;;3.80;2.55;;;;;;;34.31;27.90;99763.16;4952535;28;20192;-80
2023/07/09 06:25:47;;;;;;;3.75;2.92;;;;;;;34.15;27.83;99768.56;4953172;29;20196;-81
2023/07/09 06:28:14;;;;;;;3.38;3.03;;;;;;;33.42;28.95;99763.22;4953853;29;20196;-81
2023/07/09 06:30:41;;;;;;;3.45;2.88;;;;;;;33.08;29.55;99758.84;4954327;29;20196;-79
2023/07/09 06:33:09;;;;;;;6.30;2.70;;;;;;;32.72;30.08;99759.44;4954098;29;20206;-78
2023/07/09 06:35:36;;;;;;;2.90;2.70;;;;;;;32.85;30.02;99758.38;4954491;29;20254;-81
2023/07/09 06:38:02;;;;;;;4.30;3.07;;;;;;;32.99;29.89;99747.09;4956029;28;20263;-79
2023/07/09 06:40:29;;;;;;;3.03;2.25;;;;;;;32.99;29.83;99753.41;4956223;29;20195;-79
2023/07/09 06:42:57;;;;;;;4.03;2.97;;;;;;;33.23;30.44;99750.75;4955689;29;20684;-76
2023/07/09 06:45:24;;;;;;;2.55;2.45;;;;;;;33.24;29.73;99751.56;4956021;29;20196;-78
2023/07/09 06:47:51;;;;;;;3.00;2.72;;;;;;;33.81;30.04;99751.63;4956334;29;20196;-79
2023/07/09 06:50:20;;;;;;;4.35;2.58;;;;;;;34.47;28.62;99753.03;4957151;29;20203;-80
2023/07/09 06:52:47;;;;;;;3.15;2.53;;;;;;;34.71;28.72;99758.53;4956929;29;20210;-79
2023/07/09 06:55:14;;;;;;;3.13;2.55;;;;;;;34.27;27.86;99754.75;4957823;29;20204;-80
2023/07/09 06:57:41;;;;;;;3.45;2.45;;;;;;;34.33;28.04;99758.13;4957358;29;20196;-80
2023/07/09 07:00:09;;;;;;;2.70;2.50;;;;;;;33.97;28.64;99755.34;4957107;29;20699;-79
2023/07/09 07:02:35;;;;;;;4.15;2.38;;;;;;;33.84;28.45;99753.72;4958098;29;20627;-80
2023/07/09 07:05:02;;;;;;;5.90;2.50;;;;;;;33.50;28.64;99748.56;4957981;28;20304;-78
2023/07/09 07:07:30;;;;;;;4.43;2.50;;;;;;;33.53;29.76;99742.38;4976870;28;20262;-82
2023/07/09 07:09:57;;;;;;;5.75;2.42;;;;;;;33.56;29.21;99752.72;4976539;28;20302;-81
2023/07/09 07:12:26;;;;;;;3.05;2.50;;;;;;;33.71;29.56;99739.06;4976555;28;20261;-80
2023/07/09 07:14:53;;;;;;;4.18;2.53;;;;;;;33.40;29.53;99740.72;4976306;28;20237;-81
2023/07/09 07:17:19;;;;;;;3.90;2.40;;;;;;;33.46;29.17;99733.84;4976263;28;20632;-81
2023/07/09 07:19:46;;;;;;;10.60;3.10;;;;;;;33.69;29.37;99738.63;4975855;28;20728;-81
2023/07/09 07:22:13;;;;;;;5.03;2.78;;;;;;;33.85;29.39;99750.63;4976059;28;20254;-79
2023/07/09 07:24:41;;;;;;;3.90;2.17;;;;;;;34.12;28.54;99740.88;4966899;28;20204;-81
2023/07/09 07:27:09;;;;;;;2.67;2.47;;;;;;;33.86;29.69;99743.13;4956990;29;20192;-81
2023/07/09 07:29:35;;;;;;;3.75;2.78;;;;;;;34.00;28.86;99746.38;4957058;29;20204;-81
2023/07/09 07:32:02;;;;;;;3.10;2.80;;;;;;;34.07;29.43;99739.13;4956562;29;20200;-79
2023/07/09 07:34:29;;;;;;;3.20;2.90;;;;;;;34.47;28.47;99744.75;4956917;29;20233;-82
2023/07/09 07:36:55;;;;;;;2.63;2.53;;;;;;;34.22;28.52;99743.16;4956735;29;20196;-83
2023/07/09 07:39:22;;;;;;;5.22;2.75;;;;;;;34.02;29.06;99738.56;4956703;29;20224;-82
2023/07/09 07:41:50;;;;;;;4.43;2.47;;;;;;;33.77;28.98;99734.16;4956650;29;20192;-83
2023/07/09 07:44:17;;;;;;;4.68;2.80;;;;;;;33.74;28.86;99727.38;4956418;29;20251;-83
2023/07/09 07:46:44;;;;;;;11.80;3.10;;;;;;;33.71;28.96;99721.75;4956404;29;20280;-83
2023/07/09 07:49:11;;;;;;;3.28;3.08;;;;;;;33.74;28.96;99718.28;4956003;28;20203;-84
2023/07/09 07:51:38;;;;;;;4.97;2.72;;;;;;;33.59;28.70;99718.97;4956525;29;20258;-83
2023/07/09 07:54:05;;;;;;;2.95;2.60;;;;;;;33.87;28.94;99711.66;4956093;29;20200;-82
2023/07/09 07:56:32;;;;;;;2.60;2.40;;;;;;;33.63;28.94;99717.16;4956374;29;20192;-81
2023/07/09 07:59:00;;;;;;;5.22;2.80;;;;;;;33.64;29.64;99725.03;4956222;29;20712;-81
2023/07/09 08:01:27;;;;;;;5.47;2.60;;;;;;;33.83;29.80;99716.25;4956412;29;20259;-81
2023/07/09 08:03:54;;;;;;;5.53;2.60;;;;;;;34.19;28.56;99719.81;4956454;29;20196;-81
2023/07/09 08:06:21;;;;;;;2.97;2.35;;;;;;;34.43;28.19;99719.00;4967161;28;20196;-82
2023/07/09 08:08:48;;;;;;;3.85;2.70;;;;;;;34.69;28.42;99722.16;4975705;28;20753;-81
2023/07/09 08:11:15;;;;;;;4.47;2.65;;;;;;;34.83;26.78;99719.88;4975687;28;20250;-81
2023/07/09 08:13:42;;;;;;;2.42;2.33;;;;;;;34.44;27.26;99726.94;4969514;28;20590;-82
2023/07/09 08:16:11;;;;;;;2.88;2.53;;;;;;;34.77;27.04;99721.22;4956231;29;20192;-81
2023/07/09 08:18:38;;;;;;;3.03;2.72;;;;;;;34.89;26.58;99715.69;4956274;29;20287;-82
2023/07/09 08:21:05;;;;;;;6.63;3.13;;;;;;;35.16;26.55;99717.66;4955852;29;20196;-81
2023/07/09 08:23:32;;;;;;;4.32;2.60;;;;;;;35.19;26.73;99714.97;4956298;29;20255;-82
2023/07/09 08:26:01;;;;;;;4.22;2.80;;;;;;;34.80;26.04;99713.09;4955550;29;20251;-83
2023/07/09 08:28:28;;;;;;;5.97;2.90;;;;;;;34.81;26.55;99702.84;4955779;29;20778;-82
2023/07/09 08:30:55;;;;;;;4.20;2.50;;;;;;;34.76;26.58;99698.34;4956106;29;20196;-82
2023/07/09 08:33:24;;;;;;;5.40;2.70;;;;;;;34.81;26.60;99703.66;4955861;29;20196;-83
2023/07/09 08:35:52;;;;;;;2.78;2.47;;;;;;;34.51;26.62;99693.25;4955553;29;20191;-81
2023/07/09 08:38:19;;;;;;;12.85;3.05;;;;;;;34.33;27.26;99694.69;4955987;29;20192;-82
2023/07/09 08:40:57;;;;;;;2.80;2.60;;;;;;;34.59;26.92;99687.59;4955457;29;20778;-82
2023/07/09 08:43:34;;;;;;;3.72;2.95;;;;;;;34.29;26.76;99691.75;4955467;29;20243;-83
2023/07/09 08:46:08;;;;;;;2.70;2.60;;;;;;;34.22;26.87;99686.03;4955262;29;20259;-82
2023/07/09 08:48:41;;;;;;;6.63;3.00;;;;;;;34.29;27.56;99682.69;4955963;29;20207;-83
2023/07/09 08:51:15;;;;;;;3.05;2.95;;;;;;;34.24;26.90;99677.38;4955771;29;20266;-81
2023/07/09 08:53:46;;;;;;;2.90;2.58;;;;;;;34.20;27.90;99676.47;4955832;29;20198;-83
2023/07/09 08:56:15;;;;;;;2.90;2.70;;;;;;;34.58;27.54;99682.41;4955640;29;20247;-81
2023/07/09 08:58:45;;;;;;;5.13;3.05;;;;;;;35.00;26.78;99678.13;4955577;29;20260;-82
2023/07/09 09:01:20;;;;;;;4.28;2.85;;;;;;;35.08;27.18;99680.75;4954399;28;20251;-82
2023/07/09 09:03:51;;;;;;;3.03;2.67;;;;;;;34.67;26.50;99680.31;4955317;29;20191;-82
2023/07/09 09:06:20;;;;;;;3.63;3.00;;;;;;;34.41;26.93;99677.19;4963072;28;20275;-75
2023/07/09 09:08:56;;;;;;;4.28;2.35;;;;;;;34.18;26.89;99678.78;4935913;29;20645;-82
2023/07/09 09:11:40;;;;;;;3.83;2.45;;;;;;;34.00;27.63;99683.75;4935715;29;20649;-81
2023/07/09 09:14:19;;;;;;;2.47;2.28;;;;;;;34.65;27.64;99671.56;4935736;29;20649;-81
2023/07/09 09:16:47;;;;;;;4.25;2.78;;;;;;;35.01;26.33;99675.03;4953946;29;20192;-81
2023/07/09 09:19:22;;;;;;;3.00;2.80;;;;;;;35.11;26.37;99682.00;4954827;29;20774;-82
2023/07/09 09:21:55;;;;;;;5.95;2.78;;;;;;;35.34;25.89;99677.50;4954705;29;20664;-82
2023/07/09 09:24:28;;;;;;;2.85;2.53;;;;;;;35.59;25.61;99678.94;4955150;29;20188;-80
2023/07/09 09:26:58;;;;;;;3.30;2.58;;;;;;;35.86;25.14;99683.63;4954247;29;20239;-76
2023/07/09 09:29:26;;;;;;;4.82;2.38;;;;;;;35.49;25.29;99679.50;4954984;29;20251;-78
2023/07/09 09:31:56;;;;;;;3.15;2.88;;;;;;;35.65;26.53;99683.06;4954771;29;20564;-80
2023/07/09 09:34:28;;;;;;;6.03;2.58;;;;;;;35.83;25.10;99692.63;4954590;29;20730;-79
2023/07/09 09:36:55;;;;;;;3.45;2.63;;;;;;;35.46;24.23;99685.72;4954247;29;20199;-77
2023/07/09 09:39:24;;;;;;;16.02;4.50;;;;;;;35.39;25.22;99691.09;4954435;29;20275;-78
2023/07/09 09:41:54;;;;;;;2.85;2.70;;;;;;;35.44;24.50;99677.00;4953690;29;20254;-75
2023/07/09 09:44:27;;;;;;;2.58;2.40;;;;;;;35.53;24.02;99680.38;4953543;29;20196;-72
2023/07/09 09:46:56;;;;;;;2.85;2.45;;;;;;;35.58;23.92;99682.88;4953717;28;20195;-72
2023/07/09 09:49:25;;;;;;;3.85;2.55;;;;;;;35.74;23.57;99672.63;4953518;28;20200;-72
2023/07/09 09:51:51;;;;;;;3.45;2.28;;;;;;;35.68;23.44;99682.34;4952904;29;20255;-71
2023/07/09 09:54:21;;;;;;;3.42;2.20;;;;;;;35.42;23.75;99665.47;4953154;29;20192;-74
2023/07/09 09:56:50;;;;;;;6.03;2.65;;;;;;;35.54;23.41;99676.44;4952985;29;20255;-74
2023/07/09 09:59:21;;;;;;;6.30;4.78;;;;;;;35.69;24.15;99670.91;4952684;29;20234;-72
2023/07/09 10:01:48;;;;;;;3.10;2.90;;;;;;;36.00;23.27;99672.88;4952379;29;20272;-71
2023/07/09 10:04:19;;;;;;;5.35;2.30;;;;;;;35.81;23.28;99665.31;4952781;29;20191;-70
2023/07/09 10:06:53;;;;;;;2.63;2.45;;;;;;;35.82;22.86;99655.06;4966889;28;20195;-69
2023/07/09 10:09:35;;;;;;;2.67;2.10;;;;;;;35.49;23.96;99663.72;4955381;28;20227;-70
2023/07/09 10:12:14;;;;;;;2.55;2.40;;;;;;;35.74;23.75;99653.25;4951284;28;20195;-71
2023/07/09 10:14:47;;;;;;;2.75;2.50;;;;;;;35.92;24.02;99654.50;4952276;29;20662;-72
2023/07/09 10:17:23;;;;;;;3.63;2.70;;;;;;;36.07;23.90;99662.78;4952962;29;20250;-72
2023/07/09 10:19:58;;;;;;;2.80;2.60;;;;;;;36.11;23.19;99665.63;4952550;28;20216;-71
2023/07/09 10:22:40;;;;;;;2.50;2.30;;;;;;;35.67;23.03;99666.91;4952349;29;20656;-74
2023/07/09 10:25:17;;;;;;;2.30;2.20;;;;;;;35.96;22.08;99656.22;4955000;28;20950;-67
2023/07/09 10:27:59;;;;;;;2.10;2.00;;;;;;;36.06;21.99;99646.56;4959180;28;20255;-67
2023/07/09 10:30:40;;;;;;;2.75;2.50;;;;;;;35.73;23.46;99629.53;4960139;28;20201;-68
2023/07/09 10:33:10;;;;;;;2.78;2.58;;;;;;;35.89;23.21;99644.97;4961218;28;20189;-67
2023/07/09 10:35:44;;;;;;;3.65;2.50;;;;;;;35.89;22.79;99644.19;4961336;28;20192;-67
2023/07/09 10:38:33;;;;;;;2.95;2.72;;;;;;;35.94;22.56;99635.59;4958899;28;20247;-69
2023/07/09 10:41:03;;;;;;;4.13;2.50;;;;;;;36.03;22.69;99634.25;4961016;28;20244;-63
2023/07/09 10:43:37;;;;;;;2.90;2.70;;;;;;;35.85;22.73;99646.06;4955179;28;20206;-64
2023/07/09 10:46:08;;;;;;;2.22;2.13;;;;;;;35.95;22.96;99643.53;4955023;28;20196;-73
2023/07/09 10:48:39;;;;;;;7.38;2.70;;;;;;;35.86;22.83;99633.84;4951792;29;20239;-75
2023/07/09 10:51:20;;;;;;;8.00;2.92;;;;;;;36.10;22.69;99639.13;4953472;29;20219;-62
2023/07/09 10:53:51;;;;;;;2.15;2.05;;;;;;;36.38;22.84;99639.78;4952996;29;20188;-62
2023/07/09 10:56:22;;;;;;;3.17;2.20;;;;;;;36.41;22.11;99644.59;4952351;29;20184;-62
2023/07/09 10:58:55;;;;;;;2.35;2.15;;;;;;;36.58;20.97;99644.97;4952710;29;20877;-60
2023/07/09 11:01:30;;;;;;;2.80;2.70;;;;;;;36.20;20.98;99644.09;4952841;29;20215;-60
2023/07/09 11:04:02;;;;;;;2.75;2.38;;;;;;;35.73;21.99;99626.78;4952535;29;20188;-63
2023/07/09 11:06:35;;;;;;;3.10;2.42;;;;;;;35.70;22.62;99624.72;4964763;28;20251;-62
2023/07/09 11:09:10;;;;;;;14.35;2.92;;;;;;;35.82;22.94;99622.69;4961658;28;20623;-62
2023/07/09 11:11:43;;;;;;;2.30;2.05;;;;;;;35.70;21.96;99619.19;4952999;29;20278;-62
2023/07/09 11:14:21;;;;;;;2.70;2.60;;;;;;;35.78;21.91;99632.06;4952519;29;20192;-63
2023/07/09 11:16:49;;;;;;;3.05;2.53;;;;;;;35.71;22.71;99623.56;4951259;29;20192;-63
2023/07/09 11:19:19;;;;;;;4.78;2.80;;;;;;;35.60;22.81;99614.22;4933335;29;20205;-62
2023/07/09 11:21:59;;;;;;;4.70;2.78;;;;;;;35.61;23.30;99613.88;4933194;29;20209;-62
2023/07/09 11:24:34;;;;;;;3.08;2.53;;;;;;;35.65;23.77;99611.19;4934145;29;20189;-62
2023/07/09 11:27:01;;;;;;;2.78;2.53;;;;;;;35.73;23.86;99607.44;4937071;29;20694;-64
2023/07/09 11:29:28;;;;;;;2.40;2.30;;;;;;;35.78;23.59;99609.94;4940788;29;20208;-61
2023/07/09 11:31:59;;;;;;;2.25;2.10;;;;;;;35.33;24.28;99596.59;4956405;29;20202;-62
2023/07/09 11:34:29;;;;;;;4.13;2.58;;;;;;;35.18;24.43;99599.28;4953259;29;20607;-63
2023/07/09 11:37:00;;;;;;;4.70;2.67;;;;;;;35.42;24.20;99599.16;4951506;29;20228;-63
2023/07/09 11:39:32;;;;;;;3.38;3.17;;;;;;;35.33;24.12;99593.00;4954694;29;20188;-63
2023/07/09 11:41:59;;;;;;;2.33;2.22;;;;;;;35.52;24.06;99601.38;4970814;28;20639;-68